Fairbanks, AK

2:37 PM AKST on February 27, 2017 (GMT -0900)
200 Slater Dr. | | Change Station
Active Advisory: Special Statement

Elev 450 ft 64.84 °N, 147.70 °W | Updated 9 seconds ago

Overcast
Overcast
25.3 °F
Feels Like 18 °F
N
6.0
Wind Variable Wind from WSW
Gusts 12.0 mph

Today
High -- | Low -- °F
--% Chance of Precip.
Yesterday
High -- | Low -- °F
Precip. -- in
Pressure 29.85 in
Visibility 10.0 miles
Clouds Few 700 ft
Mostly Cloudy 1900 ft
Overcast 2500 ft
Windchill 18 °F
Dew Point 16 °F
Humidity 69%
Rainfall 0.00 in
Snow Depth Not available.
8:05 AM 6:02 PM
New Moon, 2% visible
SPECI PAFB 272305Z AUTO 25013KT 10SM FEW007 BKN019 OVC025 M05/M08 A2985
Pressure 29.85 in
Visibility 10.0 miles
Clouds Few 700 ft
Mostly Cloudy 1900 ft
Overcast 2500 ft
Windchill 18 °F
Dew Point 16 °F
Humidity 69%
Rainfall 0.00 in
Snow Depth Not available.
8:05 AM 6:02 PM
New Moon, 2% visible
SPECI PAFB 272305Z AUTO 25013KT 10SM FEW007 BKN019 OVC025 M05/M08 A2985

Get Your Daily Forecast Email!

Thanks for signing up!

Be on the lookout for a verification email in your inbox.

You'll start receiving the daily forecast at 8 AM.

×

10-Day Weather Forecast

Almanac

Astronomy

Feb. 27, 2017 Rise Set
Actual Time
Civil Twilight
Nautical Twilight
Astronomical Twilight
Moon
Length of Visible Light
Length of Day
Tomorrow will be .
, % of the Moon is Illuminated

Today's Extremes

State Highs State Lows

Community

WunderPhotos

Upload Photos

1,962,540 photos uploaded!

WunderBlog® & News

Nearby

Air Quality

  Air Quality AQ Index Pollutant
Not available.

Snow Depth

Station Depth Elevation

Earthquake Activity

City Distance Mag. Time & Date
Minimum magnitude displayed is 2.5.

Coastal Water Temperatures

Place Temperature

Stations

Nearby Weather Stations

Station Location Temp. Windchill Dew Point Humidity Wind Precip. Elev Updated Type
                   

Watches & Warnings

Special Statement
Issued: 7:28 PM AKST Feb. 26, 2017 – National Weather Service

... Fairbanks snowload...

Snowload measured by the National Weather Service near the
Fairbanks International Airport is currently 25 pounds per
square foot.


728 PM akst sun Feb 26 2017

... Fairbanks snowload...

Snowload measured by the National Weather Service near the
Fairbanks International Airport is currently 25 pounds per
square foot.



728 PM akst sun Feb 26 2017

... Fairbanks snowload...

Snowload measured by the National Weather Service near the
Fairbanks International Airport is currently 25 pounds per
square foot.